Decoded TAF's for South Africa

 
Print Page
 
 

Bloemfontein - South Africa, FABL

ADDS - TAFS form results

Aviation Digital Data Service (ADDS)

Output produced by TAFs form (0423 UTC 24 April 2018)
found at http://aviationweather.gov/adds/tafs/
 
Forecast for: FABL (BLOEMFONTEIN/HER, ZA)
Text: TAF FABL 240400Z 2406/2506 VRB03KT CAVOK TX24/2413Z TN07/2504Z
Forecast period: 0600 UTC 24 April 2018 to 0600 UTC 25 April 2018
Forecast type: FROM: standard forecast or significant change
Winds: variable direction winds at 3 MPH (3 knots; 1.6 m/s)
Visibility: 6 or more miles (10+ km)
Clouds: not forecast
Weather: no significant weather forecast for this period
Forecast for: FABL (BLOEMFONTEIN/HER, ZA)
Text: TAF FABL 240400Z 2406/2506 VRB03KT CAVOK TX24/2413Z TN07/2504Z
Forecast period: 0600 UTC 24 April 2018 to 0600 UTC 25 April 2018
Forecast type: FROM: standard forecast or significant change
Winds: variable direction winds at 3 MPH (3 knots; 1.6 m/s)
Visibility: 6 or more miles (10+ km)
Clouds: not forecast
Weather: no significant weather forecast for this period

Array
Cape Town - South Africa, FACT

ADDS - TAFS form results

Aviation Digital Data Service (ADDS)

Output produced by TAFs form (0423 UTC 24 April 2018)
found at http://aviationweather.gov/adds/tafs/
 
Forecast for: FACT (CAPETOWN/DF MALA, ZA)
Text: TAF FACT 240233Z 2400/2506 34010KT 9999 SCT015 BKN035
Forecast period: 0000 to 0800 UTC 24 April 2018
Forecast type: FROM: standard forecast or significant change
Winds: from the NNW (340 degrees) at 12 MPH (10 knots; 5.2 m/s)
Visibility: 6 or more miles (10+ km)
Ceiling: 3500 feet AGL
Clouds: scattered clouds at 1500 feet AGL
broken clouds at 3500 feet AGL
Weather: no significant weather forecast for this period
Forecast for: FACT (CAPETOWN/DF MALA, ZA)
Text: TAF FACT 240233Z 2400/2506 34010KT 9999 SCT015 BKN035
Forecast period: 0000 to 0800 UTC 24 April 2018
Forecast type: FROM: standard forecast or significant change
Winds: from the NNW (340 degrees) at 12 MPH (10 knots; 5.2 m/s)
Visibility: 6 or more miles (10+ km)
Ceiling: 3500 feet AGL
Clouds: scattered clouds at 1500 feet AGL
broken clouds at 3500 feet AGL
Weather: no significant weather forecast for this period
Forecast for: FACT (CAPETOWN/DF MALA, ZA)
Text: TAF FACT 240233Z 2400/2506 34010KT 9999 SCT015 BKN035
Forecast period: 0000 to 0600 UTC 24 April 2018
Forecast type: TEMPORARY: The following changes expected for less than half the time period
Visibility: 2.49 miles (4.01 km)
Ceiling: 1400 feet AGL
Clouds: broken clouds at 1400 feet AGL
Weather: SHRA  (rain showers)
Forecast for: FACT (CAPETOWN/DF MALA, ZA)
Text: TAF FACT 240233Z 2400/2506 34010KT 9999 SCT015 BKN035
Forecast period: 0000 to 0600 UTC 24 April 2018
Forecast type: TEMPORARY: The following changes expected for less than half the time period
Visibility: 2.49 miles (4.01 km)
Ceiling: 1400 feet AGL
Clouds: broken clouds at 1400 feet AGL
Weather: SHRA  (rain showers)
Forecast for: FACT (CAPETOWN/DF MALA, ZA)
Text: TAF FACT 240233Z 2400/2506 34010KT 9999 SCT015 BKN035
Forecast period: 0800 to 2000 UTC 24 April 2018
Forecast type: FROM: standard forecast or significant change
Winds: from the NW (310 degrees) at 15 MPH (13 knots; 6.8 m/s)
Visibility: 6 or more miles (10+ km)
Clouds: scattered clouds at 4000 feet AGL
Weather: no significant weather forecast for this period
Forecast for: FACT (CAPETOWN/DF MALA, ZA)
Text: TAF FACT 240233Z 2400/2506 34010KT 9999 SCT015 BKN035
Forecast period: 0800 to 2000 UTC 24 April 2018
Forecast type: FROM: standard forecast or significant change
Winds: from the NW (310 degrees) at 15 MPH (13 knots; 6.8 m/s)
Visibility: 6 or more miles (10+ km)
Clouds: scattered clouds at 4000 feet AGL
Weather: no significant weather forecast for this period
Forecast for: FACT (CAPETOWN/DF MALA, ZA)
Text: TAF FACT 240233Z 2400/2506 34010KT 9999 SCT015 BKN035
Forecast period: 2000 UTC 24 April 2018 to 0600 UTC 25 April 2018
Forecast type: FROM: standard forecast or significant change
Winds: variable direction winds at 5 MPH (4 knots; 2.1 m/s)
Visibility: 6 or more miles (10+ km)
Ceiling: 2500 feet AGL
Clouds: scattered clouds at 500 feet AGL
scattered clouds at 1200 feet AGL
broken clouds at 2500 feet AGL
Weather: no significant weather forecast for this period
Forecast for: FACT (CAPETOWN/DF MALA, ZA)
Text: TAF FACT 240233Z 2400/2506 34010KT 9999 SCT015 BKN035
Forecast period: 2000 UTC 24 April 2018 to 0600 UTC 25 April 2018
Forecast type: FROM: standard forecast or significant change
Winds: variable direction winds at 5 MPH (4 knots; 2.1 m/s)
Visibility: 6 or more miles (10+ km)
Ceiling: 2500 feet AGL
Clouds: scattered clouds at 500 feet AGL
scattered clouds at 1200 feet AGL
broken clouds at 2500 feet AGL
Weather: no significant weather forecast for this period
Forecast for: FACT (CAPETOWN/DF MALA, ZA)
Text: TAF FACT 240233Z 2400/2506 34010KT 9999 SCT015 BKN035
Forecast period: 2100 UTC 24 April 2018 to 0600 UTC 25 April 2018
Forecast type: TEMPORARY: The following changes expected for less than half the time period
Visibility: 1.24 miles (2.00 km)
Ceiling: 300 feet AGL
Clouds: broken clouds at 300 feet AGL
Weather: BCFG  (patches of fog)
Forecast for: FACT (CAPETOWN/DF MALA, ZA)
Text: TAF FACT 240233Z 2400/2506 34010KT 9999 SCT015 BKN035
Forecast period: 2100 UTC 24 April 2018 to 0600 UTC 25 April 2018
Forecast type: TEMPORARY: The following changes expected for less than half the time period
Visibility: 1.24 miles (2.00 km)
Ceiling: 300 feet AGL
Clouds: broken clouds at 300 feet AGL
Weather: BCFG  (patches of fog)

Array
Durban - South Africa, FALE

ADDS - TAFS form results

Aviation Digital Data Service (ADDS)

Output produced by TAFs form (0423 UTC 24 April 2018)
found at http://aviationweather.gov/adds/tafs/
 
Forecast for: FALE (DURBAN SHAKA , ZA)
Text: TAF FALE 240400Z 2406/2512 26008KT CAVOK
Forecast period: 0600 to 0900 UTC 24 April 2018
Forecast type: FROM: standard forecast or significant change
Winds: from the W (260 degrees) at 9 MPH (8 knots; 4.2 m/s)
Visibility: 6 or more miles (10+ km)
Clouds: not forecast
Weather: NSW  (no significant weather)
Forecast for: FALE (DURBAN SHAKA , ZA)
Text: TAF FALE 240400Z 2406/2512 26008KT CAVOK
Forecast period: 0600 to 0900 UTC 24 April 2018
Forecast type: FROM: standard forecast or significant change
Winds: from the W (260 degrees) at 9 MPH (8 knots; 4.2 m/s)
Visibility: 6 or more miles (10+ km)
Clouds: not forecast
Weather: NSW  (no significant weather)
Forecast for: FALE (DURBAN SHAKA , ZA)
Text: TAF FALE 240400Z 2406/2512 26008KT CAVOK
Forecast period: 0900 to 1800 UTC 24 April 2018
Forecast type: FROM: standard forecast or significant change
Winds: from the SSW (200 degrees) at 23 MPH (20 knots; 10.4 m/s)
Visibility: 6 or more miles (10+ km)
Clouds: scattered clouds at 2000 feet AGL
Weather: no significant weather forecast for this period
Forecast for: FALE (DURBAN SHAKA , ZA)
Text: TAF FALE 240400Z 2406/2512 26008KT CAVOK
Forecast period: 0900 to 1800 UTC 24 April 2018
Forecast type: FROM: standard forecast or significant change
Winds: from the SSW (200 degrees) at 23 MPH (20 knots; 10.4 m/s)
Visibility: 6 or more miles (10+ km)
Clouds: scattered clouds at 2000 feet AGL
Weather: no significant weather forecast for this period
Forecast for: FALE (DURBAN SHAKA , ZA)
Text: TAF FALE 240400Z 2406/2512 26008KT CAVOK
Forecast period: 1800 to 2200 UTC 24 April 2018
Forecast type: BECOMING: Conditions expected to become as follows by 2000 UTC 24 April 2018
Winds: from the W (280 degrees) at 6 MPH (5 knots; 2.6 m/s)
Visibility: 6 or more miles (10+ km)
Ceiling: 2000 feet AGL
Clouds: broken clouds at 2000 feet AGL
Weather: no significant weather forecast for this period
Forecast for: FALE (DURBAN SHAKA , ZA)
Text: TAF FALE 240400Z 2406/2512 26008KT CAVOK
Forecast period: 1800 to 2200 UTC 24 April 2018
Forecast type: BECOMING: Conditions expected to become as follows by 2000 UTC 24 April 2018
Winds: from the W (280 degrees) at 6 MPH (5 knots; 2.6 m/s)
Visibility: 6 or more miles (10+ km)
Ceiling: 2000 feet AGL
Clouds: broken clouds at 2000 feet AGL
Weather: no significant weather forecast for this period
Forecast for: FALE (DURBAN SHAKA , ZA)
Text: TAF FALE 240400Z 2406/2512 26008KT CAVOK
Forecast period: 2200 UTC 24 April 2018 to 0800 UTC 25 April 2018
Forecast type: BECOMING: Conditions expected to become as follows by 0000 UTC 25 April 2018
Winds: from the NNW (340 degrees) at 6 MPH (5 knots; 2.6 m/s)
Visibility: 6 or more miles (10+ km)
Ceiling: 2000 feet AGL
Clouds: broken clouds at 2000 feet AGL
Weather: no significant weather forecast for this period
Forecast for: FALE (DURBAN SHAKA , ZA)
Text: TAF FALE 240400Z 2406/2512 26008KT CAVOK
Forecast period: 2200 UTC 24 April 2018 to 0800 UTC 25 April 2018
Forecast type: BECOMING: Conditions expected to become as follows by 0000 UTC 25 April 2018
Winds: from the NNW (340 degrees) at 6 MPH (5 knots; 2.6 m/s)
Visibility: 6 or more miles (10+ km)
Ceiling: 2000 feet AGL
Clouds: broken clouds at 2000 feet AGL
Weather: no significant weather forecast for this period
Forecast for: FALE (DURBAN SHAKA , ZA)
Text: TAF FALE 240400Z 2406/2512 26008KT CAVOK
Forecast period: 0800 to 1200 UTC 25 April 2018
Forecast type: BECOMING: Conditions expected to become as follows by 1000 UTC 25 April 2018
Winds: from the NE (40 degrees) at 14 MPH (12 knots; 6.2 m/s)
Visibility: 6 or more miles (10+ km)
Clouds: scattered clouds at 2500 feet AGL
Weather: no significant weather forecast for this period
Forecast for: FALE (DURBAN SHAKA , ZA)
Text: TAF FALE 240400Z 2406/2512 26008KT CAVOK
Forecast period: 0800 to 1200 UTC 25 April 2018
Forecast type: BECOMING: Conditions expected to become as follows by 1000 UTC 25 April 2018
Winds: from the NE (40 degrees) at 14 MPH (12 knots; 6.2 m/s)
Visibility: 6 or more miles (10+ km)
Clouds: scattered clouds at 2500 feet AGL
Weather: no significant weather forecast for this period

Array
East London - South Africa, FAEL

ADDS - TAFS form results

Aviation Digital Data Service (ADDS)

Output produced by TAFs form (0423 UTC 24 April 2018)
found at http://aviationweather.gov/adds/tafs/
 
Forecast for: FAEL (EAST LONDON/SCHO, ZA)
Text: TAF FAEL 240300Z 2404/2415 25018KT CAVOK
Forecast period: 0400 to 0700 UTC 24 April 2018
Forecast type: FROM: standard forecast or significant change
Winds: from the WSW (250 degrees) at 21 MPH (18 knots; 9.4 m/s)
Visibility: 6 or more miles (10+ km)
Clouds: not forecast
Weather: NSW  (no significant weather)
Text: FM240700 24015KT 9999 BKN020
Forecast period: 0700 to 1400 UTC 24 April 2018
Forecast type: FROM: standard forecast or significant change
Winds: from the WSW (240 degrees) at 17 MPH (15 knots; 7.8 m/s)
Visibility: 6 or more miles (10+ km)
Ceiling: 2000 feet AGL
Clouds: broken clouds at 2000 feet AGL
Weather: no significant weather forecast for this period
Text: BECMG 2414/2415 19008KT TX24/2412Z TN20/2404Z
Forecast period: 1400 to 1500 UTC 24 April 2018
Forecast type: BECOMING: Conditions expected to become as follows by 1500 UTC 24 April 2018
Winds: from the S (190 degrees) at 9 MPH (8 knots; 4.2 m/s)
Visibility: 6 or more miles (10+ km)
Ceiling: 2000 feet AGL
Clouds: broken clouds at 2000 feet AGL
Weather: no significant weather forecast for this period

Array
George - South Africa, FAGG

ADDS - TAFS form results

Aviation Digital Data Service (ADDS)

Output produced by TAFs form (0423 UTC 24 April 2018)
found at http://aviationweather.gov/adds/tafs/
 
Forecast for: FAGG (GEORGE/P. W. BOT, ZA)
Text: TAF FAGG 232200Z 2400/2424 VRB05KT 9999 FEW006 BKN015
Forecast period: 0000 to 0800 UTC 24 April 2018
Forecast type: FROM: standard forecast or significant change
Winds: variable direction winds at 6 MPH (5 knots; 2.6 m/s)
Visibility: 6 or more miles (10+ km)
Ceiling: 1500 feet AGL
Clouds: few clouds at 600 feet AGL
broken clouds at 1500 feet AGL
Weather: no significant weather forecast for this period
Forecast for: FAGG (GEORGE/P. W. BOT, ZA)
Text: TAF FAGG 232200Z 2400/2424 VRB05KT 9999 FEW006 BKN015
Forecast period: 0000 to 0800 UTC 24 April 2018
Forecast type: FROM: standard forecast or significant change
Winds: variable direction winds at 6 MPH (5 knots; 2.6 m/s)
Visibility: 6 or more miles (10+ km)
Ceiling: 1500 feet AGL
Clouds: few clouds at 600 feet AGL
broken clouds at 1500 feet AGL
Weather: no significant weather forecast for this period
Forecast for: FAGG (GEORGE/P. W. BOT, ZA)
Text: TAF FAGG 232200Z 2400/2424 VRB05KT 9999 FEW006 BKN015
Forecast period: 0000 to 0800 UTC 24 April 2018
Forecast type: TEMPORARY: The following changes expected for less than half the time period
Visibility: 2.80 miles (4.51 km)
Ceiling: 600 feet AGL
Clouds: broken clouds at 600 feet AGL
Weather: -SHRA  (light rain showers)
Forecast for: FAGG (GEORGE/P. W. BOT, ZA)
Text: TAF FAGG 232200Z 2400/2424 VRB05KT 9999 FEW006 BKN015
Forecast period: 0000 to 0800 UTC 24 April 2018
Forecast type: TEMPORARY: The following changes expected for less than half the time period
Visibility: 2.80 miles (4.51 km)
Ceiling: 600 feet AGL
Clouds: broken clouds at 600 feet AGL
Weather: -SHRA  (light rain showers)
Forecast for: FAGG (GEORGE/P. W. BOT, ZA)
Text: TAF FAGG 232200Z 2400/2424 VRB05KT 9999 FEW006 BKN015
Forecast period: 0800 to 1200 UTC 24 April 2018
Forecast type: FROM: standard forecast or significant change
Winds: variable direction winds at 2 MPH (2 knots; 1.0 m/s)
Visibility: 6 or more miles (10+ km)
Ceiling: 4000 feet AGL
Clouds: scattered clouds at 2500 feet AGL
broken clouds at 4000 feet AGL
Weather: no significant weather forecast for this period
Forecast for: FAGG (GEORGE/P. W. BOT, ZA)
Text: TAF FAGG 232200Z 2400/2424 VRB05KT 9999 FEW006 BKN015
Forecast period: 0800 to 1200 UTC 24 April 2018
Forecast type: FROM: standard forecast or significant change
Winds: variable direction winds at 2 MPH (2 knots; 1.0 m/s)
Visibility: 6 or more miles (10+ km)
Ceiling: 4000 feet AGL
Clouds: scattered clouds at 2500 feet AGL
broken clouds at 4000 feet AGL
Weather: no significant weather forecast for this period
Forecast for: FAGG (GEORGE/P. W. BOT, ZA)
Text: TAF FAGG 232200Z 2400/2424 VRB05KT 9999 FEW006 BKN015
Forecast period: 1200 to 2100 UTC 24 April 2018
Forecast type: FROM: standard forecast or significant change
Winds: from the SE (130 degrees) at 9 MPH (8 knots; 4.2 m/s)
Visibility: 6 or more miles (10+ km)
Clouds: scattered clouds at 3500 feet AGL
Weather: no significant weather forecast for this period
Forecast for: FAGG (GEORGE/P. W. BOT, ZA)
Text: TAF FAGG 232200Z 2400/2424 VRB05KT 9999 FEW006 BKN015
Forecast period: 1200 to 2100 UTC 24 April 2018
Forecast type: FROM: standard forecast or significant change
Winds: from the SE (130 degrees) at 9 MPH (8 knots; 4.2 m/s)
Visibility: 6 or more miles (10+ km)
Clouds: scattered clouds at 3500 feet AGL
Weather: no significant weather forecast for this period
Forecast for: FAGG (GEORGE/P. W. BOT, ZA)
Text: TAF FAGG 232200Z 2400/2424 VRB05KT 9999 FEW006 BKN015
Forecast period: 2100 UTC 24 April 2018 to 0000 UTC 25 April 2018
Forecast type: FROM: standard forecast or significant change
Winds: from the ENE (70 degrees) at 7 MPH (6 knots; 3.1 m/s)
Visibility: 6 or more miles (10+ km)
Clouds: not forecast
Weather: no significant weather forecast for this period
Forecast for: FAGG (GEORGE/P. W. BOT, ZA)
Text: TAF FAGG 232200Z 2400/2424 VRB05KT 9999 FEW006 BKN015
Forecast period: 2100 UTC 24 April 2018 to 0000 UTC 25 April 2018
Forecast type: FROM: standard forecast or significant change
Winds: from the ENE (70 degrees) at 7 MPH (6 knots; 3.1 m/s)
Visibility: 6 or more miles (10+ km)
Clouds: not forecast
Weather: no significant weather forecast for this period

Array
Hoedspruit - South Africa, FAHS

ADDS - TAFS form results

Aviation Digital Data Service (ADDS)

Output produced by TAFs form (0423 UTC 24 April 2018)
found at http://aviationweather.gov/adds/tafs/
 
You entered "FAHS"

Sorry, either there are no data available for your request or you did not enter any valid ICAO airport abbreviations.

See stations.txt for a list of known METAR and TAF locations. Then go back to the ADDS METARs or TAFs page and try again
 
Please try again and, if problems persist, then send mail to ncep.awc.adds@noaa.gov
Array
Lanseria - South Africa, FALA

ADDS - TAFS form results

Aviation Digital Data Service (ADDS)

Output produced by TAFs form (0423 UTC 24 April 2018)
found at http://aviationweather.gov/adds/tafs/
 
Forecast for: FALA (LANSERIA (CIV/MI, ZA)
Text: TAF FALA 240400Z 2406/2506 VRB03KT CAVOK
Forecast period: 0600 to 0800 UTC 24 April 2018
Forecast type: FROM: standard forecast or significant change
Winds: variable direction winds at 3 MPH (3 knots; 1.6 m/s)
Visibility: 6 or more miles (10+ km)
Clouds: not forecast
Weather: NSW  (no significant weather)
Text: BECMG 2408/2410 16005KT
Forecast period: 0800 to 1200 UTC 24 April 2018
Forecast type: BECOMING: Conditions expected to become as follows by 1000 UTC 24 April 2018
Winds: from the SSE (160 degrees) at 6 MPH (5 knots; 2.6 m/s)
Visibility: 6 or more miles (10+ km)
Weather: NSW  (no significant weather)
Text: BECMG 2412/2414 VRB03KT TX27/2412Z TN12/2504Z
Forecast period: 1200 UTC 24 April 2018 to 0600 UTC 25 April 2018
Forecast type: BECOMING: Conditions expected to become as follows by 1400 UTC 24 April 2018
Winds: variable direction winds at 3 MPH (3 knots; 1.6 m/s)
Visibility: 6 or more miles (10+ km)
Weather: NSW  (no significant weather)

Array
Makhado AFB - South Africa, FALM

ADDS - TAFS form results

Aviation Digital Data Service (ADDS)

Output produced by TAFs form (0423 UTC 24 April 2018)
found at http://aviationweather.gov/adds/tafs/
 
You entered "FALM"

Sorry, either there are no data available for your request or you did not enter any valid ICAO airport abbreviations.

See stations.txt for a list of known METAR and TAF locations. Then go back to the ADDS METARs or TAFs page and try again
 
Please try again and, if problems persist, then send mail to ncep.awc.adds@noaa.gov
Array
Mmabatho - South Africa, FAMM

ADDS - TAFS form results

Aviation Digital Data Service (ADDS)

Output produced by TAFs form (0423 UTC 24 April 2018)
found at http://aviationweather.gov/adds/tafs/
 
Forecast for: FAMM (MMABATHO INTL AR, ZA)
Text: TAF FAMM 240300Z 2404/2415 07006KT CAVOK
Forecast period: 0400 to 0800 UTC 24 April 2018
Forecast type: FROM: standard forecast or significant change
Winds: from the ENE (70 degrees) at 7 MPH (6 knots; 3.1 m/s)
Visibility: 6 or more miles (10+ km)
Clouds: not forecast
Weather: NSW  (no significant weather)
Text: BECMG 2408/2410 32007KT TX27/2412Z TN09/2404Z
Forecast period: 0800 to 1500 UTC 24 April 2018
Forecast type: BECOMING: Conditions expected to become as follows by 1000 UTC 24 April 2018
Winds: from the NW (320 degrees) at 8 MPH (7 knots; 3.6 m/s)
Visibility: 6 or more miles (10+ km)
Weather: NSW  (no significant weather)

Array
ORT Johannesburg - South Africa, FAOR

ADDS - TAFS form results

Aviation Digital Data Service (ADDS)

Output produced by TAFs form (0423 UTC 24 April 2018)
found at http://aviationweather.gov/adds/tafs/
 
Forecast for: FAOR (JOHANNESBURG/TAM, ZA)
Text: TAF FAOR 240400Z 2406/2512 VRB03KT CAVOK
Forecast period: 0600 to 0800 UTC 24 April 2018
Forecast type: FROM: standard forecast or significant change
Winds: variable direction winds at 3 MPH (3 knots; 1.6 m/s)
Visibility: 6 or more miles (10+ km)
Clouds: not forecast
Weather: NSW  (no significant weather)
Forecast for: FAOR (JOHANNESBURG/TAM, ZA)
Text: TAF FAOR 240400Z 2406/2512 VRB03KT CAVOK
Forecast period: 0600 to 0800 UTC 24 April 2018
Forecast type: FROM: standard forecast or significant change
Winds: variable direction winds at 3 MPH (3 knots; 1.6 m/s)
Visibility: 6 or more miles (10+ km)
Clouds: not forecast
Weather: NSW  (no significant weather)
Forecast for: FAOR (JOHANNESBURG/TAM, ZA)
Text: TAF FAOR 240400Z 2406/2512 VRB03KT CAVOK
Forecast period: 0800 to 1800 UTC 24 April 2018
Forecast type: BECOMING: Conditions expected to become as follows by 1000 UTC 24 April 2018
Winds: from the S (180 degrees) at 12 MPH (10 knots; 5.2 m/s)
Visibility: 6 or more miles (10+ km)
Weather: NSW  (no significant weather)
Forecast for: FAOR (JOHANNESBURG/TAM, ZA)
Text: TAF FAOR 240400Z 2406/2512 VRB03KT CAVOK
Forecast period: 0800 to 1800 UTC 24 April 2018
Forecast type: BECOMING: Conditions expected to become as follows by 1000 UTC 24 April 2018
Winds: from the S (180 degrees) at 12 MPH (10 knots; 5.2 m/s)
Visibility: 6 or more miles (10+ km)
Weather: NSW  (no significant weather)
Forecast for: FAOR (JOHANNESBURG/TAM, ZA)
Text: TAF FAOR 240400Z 2406/2512 VRB03KT CAVOK
Forecast period: 1800 UTC 24 April 2018 to 0600 UTC 25 April 2018
Forecast type: BECOMING: Conditions expected to become as follows by 2000 UTC 24 April 2018
Winds: variable direction winds at 3 MPH (3 knots; 1.6 m/s)
Visibility: 6 or more miles (10+ km)
Weather: NSW  (no significant weather)
Forecast for: FAOR (JOHANNESBURG/TAM, ZA)
Text: TAF FAOR 240400Z 2406/2512 VRB03KT CAVOK
Forecast period: 1800 UTC 24 April 2018 to 0600 UTC 25 April 2018
Forecast type: BECOMING: Conditions expected to become as follows by 2000 UTC 24 April 2018
Winds: variable direction winds at 3 MPH (3 knots; 1.6 m/s)
Visibility: 6 or more miles (10+ km)
Weather: NSW  (no significant weather)
Forecast for: FAOR (JOHANNESBURG/TAM, ZA)
Text: TAF FAOR 240400Z 2406/2512 VRB03KT CAVOK
Forecast period: 0600 to 1200 UTC 25 April 2018
Forecast type: BECOMING: Conditions expected to become as follows by 0800 UTC 25 April 2018
Winds: from the N (360 degrees) at 9 MPH (8 knots; 4.2 m/s)
Visibility: 6 or more miles (10+ km)
Weather: NSW  (no significant weather)
Forecast for: FAOR (JOHANNESBURG/TAM, ZA)
Text: TAF FAOR 240400Z 2406/2512 VRB03KT CAVOK
Forecast period: 0600 to 1200 UTC 25 April 2018
Forecast type: BECOMING: Conditions expected to become as follows by 0800 UTC 25 April 2018
Winds: from the N (360 degrees) at 9 MPH (8 knots; 4.2 m/s)
Visibility: 6 or more miles (10+ km)
Weather: NSW  (no significant weather)

Array
Kruger Mpumalanga - South Africa, FAKN

ADDS - TAFS form results

Aviation Digital Data Service (ADDS)

Output produced by TAFs form (0423 UTC 24 April 2018)
found at http://aviationweather.gov/adds/tafs/
 
Forecast for: FAKN (KRUGER MPUMALANG, ZA)
Text: TAF FAKN 240300Z 2404/2415 VRB03KT CAVOK TX28/2412Z TN17/2404Z
Forecast period: 0400 to 1500 UTC 24 April 2018
Forecast type: FROM: standard forecast or significant change
Winds: variable direction winds at 3 MPH (3 knots; 1.6 m/s)
Visibility: 6 or more miles (10+ km)
Clouds: not forecast
Weather: no significant weather forecast for this period

Array
Pietermaritzburg - South Africa, FAPM

ADDS - TAFS form results

Aviation Digital Data Service (ADDS)

Output produced by TAFs form (0423 UTC 24 April 2018)
found at http://aviationweather.gov/adds/tafs/
 
Forecast for: FAPM (PIETERMARITZBURG, ZA)
Text: TAF FAPM 240300Z 2404/2415 VRB02KT CAVOK
Forecast period: 0400 to 1000 UTC 24 April 2018
Forecast type: FROM: standard forecast or significant change
Winds: variable direction winds at 2 MPH (2 knots; 1.0 m/s)
Visibility: 6 or more miles (10+ km)
Clouds: not forecast
Weather: NSW  (no significant weather)
Text: FM241000 12008KT 9999 SCT020 TX29/2411Z TN14/2404Z
Forecast period: 1000 to 1500 UTC 24 April 2018
Forecast type: FROM: standard forecast or significant change
Winds: from the ESE (120 degrees) at 9 MPH (8 knots; 4.2 m/s)
Visibility: 6 or more miles (10+ km)
Clouds: scattered clouds at 2000 feet AGL
Weather: no significant weather forecast for this period

Array
Polokwane - South Africa, FAPP

ADDS - TAFS form results

Aviation Digital Data Service (ADDS)

Output produced by TAFs form (0423 UTC 24 April 2018)
found at http://aviationweather.gov/adds/tafs/
 
Forecast for: FAPP (POLOKWANE INTL , ZA)
Text: TAF FAPP 240300Z 2404/2415 18005KT CAVOK
Forecast period: 0400 to 1000 UTC 24 April 2018
Forecast type: FROM: standard forecast or significant change
Winds: from the S (180 degrees) at 6 MPH (5 knots; 2.6 m/s)
Visibility: 6 or more miles (10+ km)
Clouds: not forecast
Weather: NSW  (no significant weather)
Text: BECMG 2410/2412 12008KT TX27/2412Z TN13/2404Z
Forecast period: 1000 to 1500 UTC 24 April 2018
Forecast type: BECOMING: Conditions expected to become as follows by 1200 UTC 24 April 2018
Winds: from the ESE (120 degrees) at 9 MPH (8 knots; 4.2 m/s)
Visibility: 6 or more miles (10+ km)
Weather: NSW  (no significant weather)

Array
Port Elizabeth - South Africa, FAPE

ADDS - TAFS form results

Aviation Digital Data Service (ADDS)

Output produced by TAFs form (0423 UTC 24 April 2018)
found at http://aviationweather.gov/adds/tafs/
 
Forecast for: FAPE (PORT ELIZABETH , ZA)
Text: TAF FAPE 240400Z 2406/2506 25025G35KT 9999 SCT025
Forecast period: 0600 to 0800 UTC 24 April 2018
Forecast type: FROM: standard forecast or significant change
Winds: from the WSW (250 degrees) at 29 MPH (25 knots; 13.0 m/s)
gusting to 40 MPH (35 knots; 18.2 m/s)
Visibility: 6 or more miles (10+ km)
Clouds: scattered clouds at 2500 feet AGL
Weather: no significant weather forecast for this period
Forecast for: FAPE (PORT ELIZABETH , ZA)
Text: TAF FAPE 240400Z 2406/2506 25025G35KT 9999 SCT025
Forecast period: 0600 to 0800 UTC 24 April 2018
Forecast type: FROM: standard forecast or significant change
Winds: from the WSW (250 degrees) at 29 MPH (25 knots; 13.0 m/s)
gusting to 40 MPH (35 knots; 18.2 m/s)
Visibility: 6 or more miles (10+ km)
Clouds: scattered clouds at 2500 feet AGL
Weather: no significant weather forecast for this period
Forecast for: FAPE (PORT ELIZABETH , ZA)
Text: TAF FAPE 240400Z 2406/2506 25025G35KT 9999 SCT025
Forecast period: 0800 to 1800 UTC 24 April 2018
Forecast type: BECOMING: Conditions expected to become as follows by 1000 UTC 24 April 2018
Winds: from the WSW (240 degrees) at 22 MPH (19 knots; 9.9 m/s)
Visibility: 6 or more miles (10+ km)
Clouds: scattered clouds at 2500 feet AGL
Weather: no significant weather forecast for this period
Forecast for: FAPE (PORT ELIZABETH , ZA)
Text: TAF FAPE 240400Z 2406/2506 25025G35KT 9999 SCT025
Forecast period: 0800 to 1800 UTC 24 April 2018
Forecast type: BECOMING: Conditions expected to become as follows by 1000 UTC 24 April 2018
Winds: from the WSW (240 degrees) at 22 MPH (19 knots; 9.9 m/s)
Visibility: 6 or more miles (10+ km)
Clouds: scattered clouds at 2500 feet AGL
Weather: no significant weather forecast for this period
Forecast for: FAPE (PORT ELIZABETH , ZA)
Text: TAF FAPE 240400Z 2406/2506 25025G35KT 9999 SCT025
Forecast period: 1800 UTC 24 April 2018 to 0300 UTC 25 April 2018
Forecast type: BECOMING: Conditions expected to become as follows by 2000 UTC 24 April 2018
Winds: from the WNW (300 degrees) at 6 MPH (5 knots; 2.6 m/s)
Visibility: 6 or more miles (10+ km)
Clouds: scattered clouds at 3000 feet AGL
Weather: no significant weather forecast for this period
Forecast for: FAPE (PORT ELIZABETH , ZA)
Text: TAF FAPE 240400Z 2406/2506 25025G35KT 9999 SCT025
Forecast period: 1800 UTC 24 April 2018 to 0300 UTC 25 April 2018
Forecast type: BECOMING: Conditions expected to become as follows by 2000 UTC 24 April 2018
Winds: from the WNW (300 degrees) at 6 MPH (5 knots; 2.6 m/s)
Visibility: 6 or more miles (10+ km)
Clouds: scattered clouds at 3000 feet AGL
Weather: no significant weather forecast for this period
Forecast for: FAPE (PORT ELIZABETH , ZA)
Text: TAF FAPE 240400Z 2406/2506 25025G35KT 9999 SCT025
Forecast period: 0300 to 0600 UTC 25 April 2018
Forecast type: BECOMING: Conditions expected to become as follows by 0500 UTC 25 April 2018
Winds: from the NNE (30 degrees) at 5 MPH (4 knots; 2.1 m/s)
Visibility: 6 or more miles (10+ km)
Clouds: scattered clouds at 3000 feet AGL
Weather: no significant weather forecast for this period
Forecast for: FAPE (PORT ELIZABETH , ZA)
Text: TAF FAPE 240400Z 2406/2506 25025G35KT 9999 SCT025
Forecast period: 0300 to 0600 UTC 25 April 2018
Forecast type: BECOMING: Conditions expected to become as follows by 0500 UTC 25 April 2018
Winds: from the NNE (30 degrees) at 5 MPH (4 knots; 2.1 m/s)
Visibility: 6 or more miles (10+ km)
Clouds: scattered clouds at 3000 feet AGL
Weather: no significant weather forecast for this period

Array
Richards Bay - South Africa, FATB

ADDS - TAFS form results

Aviation Digital Data Service (ADDS)

Output produced by TAFs form (0423 UTC 24 April 2018)
found at http://aviationweather.gov/adds/tafs/
 
You entered "FATB"

Sorry, either there are no data available for your request or you did not enter any valid ICAO airport abbreviations.

See stations.txt for a list of known METAR and TAF locations. Then go back to the ADDS METARs or TAFs page and try again
 
Please try again and, if problems persist, then send mail to ncep.awc.adds@noaa.gov
Array
Upington - South Africa, FAUP

ADDS - TAFS form results

Aviation Digital Data Service (ADDS)

Output produced by TAFs form (0423 UTC 24 April 2018)
found at http://aviationweather.gov/adds/tafs/
 
Forecast for: FAUP (UPINGTON/PIERRE , ZA)
Text: TAF FAUP 240400Z 2406/2506 VRB03KT CAVOK TX27/2413Z TN14/2504Z
Forecast period: 0600 UTC 24 April 2018 to 0600 UTC 25 April 2018
Forecast type: FROM: standard forecast or significant change
Winds: variable direction winds at 3 MPH (3 knots; 1.6 m/s)
Visibility: 6 or more miles (10+ km)
Clouds: not forecast
Weather: no significant weather forecast for this period
Forecast for: FAUP (UPINGTON/PIERRE , ZA)
Text: TAF FAUP 240400Z 2406/2506 VRB03KT CAVOK TX27/2413Z TN14/2504Z
Forecast period: 0600 UTC 24 April 2018 to 0600 UTC 25 April 2018
Forecast type: FROM: standard forecast or significant change
Winds: variable direction winds at 3 MPH (3 knots; 1.6 m/s)
Visibility: 6 or more miles (10+ km)
Clouds: not forecast
Weather: no significant weather forecast for this period

Array
Wonderboom - South Africa, FAWB

ADDS - TAFS form results

Aviation Digital Data Service (ADDS)

Output produced by TAFs form (0423 UTC 24 April 2018)
found at http://aviationweather.gov/adds/tafs/
 
Forecast for: FAWB (WONDERBOOM/PRETO, ZA)
Text: TAF FAWB 240325Z 2404/2415 VRB03KT CAVOK
Forecast period: 0400 to 1200 UTC 24 April 2018
Forecast type: FROM: standard forecast or significant change
Winds: variable direction winds at 3 MPH (3 knots; 1.6 m/s)
Visibility: 6 or more miles (10+ km)
Clouds: not forecast
Weather: NSW  (no significant weather)
Text: BECMG 2412/2414 29005KT TX27/2412Z TN12/2404Z
Forecast period: 1200 to 1500 UTC 24 April 2018
Forecast type: BECOMING: Conditions expected to become as follows by 1400 UTC 24 April 2018
Winds: from the WNW (290 degrees) at 6 MPH (5 knots; 2.6 m/s)
Visibility: 6 or more miles (10+ km)
Weather: NSW  (no significant weather)

Array